Babaculandia, Brazil
Current Conditions -  °F | °C
As of 4:00 PM on Saturday 25 Oct 2014 (Local Time) from SBIZ Reporting Station
Scattered Clouds Scattered Clouds  
Wind Chill: 93°   Ceiling: Unl
Heat Index: 99°   Visibility: 6mi
Dew Point: 70°   Wind: 3mph
Humidity: 46%   Direction: 280°W
Pressure: 29.74"   Gusts: NA
Location:  7.2°S, 47.76°W
Report Text: SBIZ 251900Z 28003KT 9999 SCT025 34/21 Q1007
Loading
Personal Weather Stations






























Interactive Weather Map
Tropical Storm Tracking
New forecast layout! Learn more

10-Day Weather Forecast

Advertisements
Track Severe Weather on mobile